Home   Weather   USA   St. Croix Falls   Past weeks
Flag for USA

Past Weather in St. Croix Falls, Wisconsin, USA — Yesterday and Last 2 Weeks

Currently: 45 °F. Clear. (Weather station: L O Simenstad Municipal Airport, USA). See more current weather

Past Weather in St. Croix Falls — Graph

°F

St. Croix Falls Temperature Yesterday

Maximum temperature yesterday: 66 °F (at 4:15 pm)
Minimum temperature yesterday: 30 °F (at 7:55 am)
Average temperature yesterday: 46 °F

High & Low Weather Summary for the Past Weeks

 TemperatureHumidityPressure
High76 °F (Oct 5, 3:15 pm)100% (Oct 3, 6:55 am)30.33 "Hg (Oct 3, 6:55 am)
Low30 °F (Oct 17, 7:55 am)27% (Oct 17, 3:15 pm)29.51 "Hg (Oct 10, 2:55 pm)
Average57 °F82%29.96 "Hg
* Reported Oct 3 5:15 am — Oct 18 5:15 am, St. Croix Falls. Weather by CustomWeather, © 2021

Note: Actual official high and low records may vary slightly from our data, if they occured in-between our weather recording intervals... More about our weather records

St. Croix Falls Weather History for the Previous 24 Hours

Scroll right to see more
 ConditionsComfort  
Time TempWeatherWind HumidityBarometerVisibility
5:15 am
Mon, Oct 18
44 °FClear.5 mph76%30.04 "Hg10 mi
4:55 am43 °FClear.6 mph78%30.04 "Hg10 mi
4:35 am41 °FClear.5 mph82%30.04 "Hg10 mi
4:15 am41 °FClear.3 mph83%30.04 "Hg10 mi
3:55 am40 °FClear.5 mph86%30.04 "Hg10 mi
3:35 am43 °FClear.3 mph76%30.05 "Hg10 mi
3:15 am43 °FClear.No wind76%30.05 "Hg10 mi
2:55 am43 °FClear.No wind77%30.05 "Hg10 mi
2:35 am43 °FClear.5 mph77%30.06 "Hg10 mi
2:15 am45 °FClear.5 mph72%30.06 "Hg10 mi
1:55 am43 °FClear.6 mph80%30.06 "Hg10 mi
1:35 am43 °FClear.6 mph79%30.06 "Hg10 mi
12:55 am43 °FClear.5 mph81%30.07 "Hg10 mi
12:35 am41 °FClear.5 mph88%30.06 "Hg10 mi
12:15 am40 °FClear.No wind85%30.06 "Hg10 mi
11:55 pm
Sun, Oct 17
40 °FClear.No wind84%30.07 "Hg10 mi
11:35 pm43 °FClear.3 mph81%30.07 "Hg10 mi
11:15 pm41 °FClear.No wind87%30.07 "Hg10 mi
10:55 pm41 °FClear.No wind86%30.07 "Hg10 mi
10:35 pm42 °FClear.3 mph84%30.07 "Hg10 mi
10:15 pm43 °FClear.No wind85%30.08 "Hg10 mi
9:55 pm42 °FClear.No wind86%30.08 "Hg10 mi
9:35 pm44 °FClear.No wind76%30.08 "Hg10 mi
9:15 pm43 °FClear.No wind82%30.08 "Hg10 mi
8:55 pm44 °FClear.No wind79%30.07 "Hg10 mi
8:35 pm42 °FClear.3 mph85%30.07 "Hg10 mi
7:55 pm46 °FClear.No wind72%30.08 "Hg10 mi
7:15 pm48 °FClear.3 mph69%30.07 "Hg10 mi
6:55 pm49 °FClear.3 mph64%30.07 "Hg10 mi
6:35 pm54 °FClear.5 mph52%30.07 "Hg10 mi
6:15 pm60 °FSunny.No wind39%30.07 "Hg10 mi
5:55 pm63 °FSunny.3 mph34%30.08 "Hg10 mi
5:35 pm64 °FSunny.6 mph34%30.08 "Hg10 mi
5:15 pm65 °FSunny.6 mph33%30.09 "Hg10 mi
4:55 pm65 °FSunny.6 mph31%30.09 "Hg10 mi
4:35 pm66 °FSunny.6 mph31%30.10 "Hg10 mi
4:15 pm66 °FSunny.10 mph29%30.10 "Hg10 mi
3:55 pm66 °FSunny.7 mph28%30.11 "Hg10 mi
3:35 pm66 °FSunny.10 mph28%30.11 "Hg10 mi
3:15 pm66 °FSunny.9 mph27%30.11 "Hg10 mi
2:55 pm66 °FSunny.8 mph28%30.12 "Hg10 mi
2:35 pm66 °FSunny.6 mph28%30.12 "Hg10 mi
1:55 pm65 °FSunny.7 mph30%30.13 "Hg10 mi
1:15 pm64 °FSunny.7 mph31%30.15 "Hg10 mi
12:55 pm63 °FSunny.7 mph31%30.16 "Hg10 mi
12:35 pm63 °FSunny.5 mph31%30.16 "Hg10 mi
12:15 pm62 °FSunny.8 mph34%30.16 "Hg10 mi
11:55 am61 °FSunny.6 mph37%30.17 "Hg10 mi
11:35 am59 °FSunny.No wind46%30.17 "Hg10 mi
11:15 am57 °FSunny.3 mph50%30.18 "Hg10 mi
10:55 am54 °FSunny.No wind60%30.18 "Hg10 mi
10:35 am52 °FSunny.3 mph65%30.18 "Hg10 mi
10:15 am50 °FSunny.5 mph72%30.17 "Hg10 mi
9:55 am48 °FSunny.5 mph76%30.17 "Hg10 mi
9:35 am45 °FSunny.5 mph87%30.17 "Hg10 mi
9:15 am40 °FSunny.No wind97%30.17 "Hg10 mi
8:55 am36 °FSunny.No wind100%30.16 "Hg10 mi
8:35 am32 °FSunny.No wind100%30.16 "Hg10 mi
8:15 am31 °FSunny.No wind96%30.16 "Hg10 mi
7:55 am30 °FSunny.No wind100%30.16 "Hg10 mi
7:35 am30 °FSunny.No wind100%30.16 "Hg10 mi
7:15 am30 °FClear.No wind97%30.15 "Hg10 mi
6:55 am31 °FClear.No wind98%30.15 "Hg10 mi
6:35 am30 °FClear.No wind100%30.15 "Hg10 mi
6:15 am31 °FClear.No wind100%30.15 "Hg10 mi
Weather by CustomWeather, © 2021

See weather overview